sensor_id;sensor_type;location;lat;lon;timestamp;P1;durP1;ratioP1;P2;durP2;ratioP2
34030;SDS011;20319;28.466;-16.274;2024-03-29T00:02:09;9.60;;;2.25;;
34030;SDS011;20319;28.466;-16.274;2024-03-29T00:04:34;9.30;;;2.38;;
34030;SDS011;20319;28.466;-16.274;2024-03-29T00:07:00;10.73;;;2.10;;
34030;SDS011;20319;28.466;-16.274;2024-03-29T00:09:26;12.43;;;3.10;;
34030;SDS011;20319;28.466;-16.274;2024-03-29T00:11:51;13.38;;;3.25;;
34030;SDS011;20319;28.466;-16.274;2024-03-29T00:14:17;13.15;;;3.03;;
34030;SDS011;20319;28.466;-16.274;2024-03-29T00:16:43;24.08;;;2.85;;
34030;SDS011;20319;28.466;-16.274;2024-03-29T00:19:09;11.50;;;1.40;;
34030;SDS011;20319;28.466;-16.274;2024-03-29T00:21:34;84.00;;;3.42;;
34030;SDS011;20319;28.466;-16.274;2024-03-29T00:24:00;24.77;;;1.45;;
34030;SDS011;20319;28.466;-16.274;2024-03-29T00:26:26;18.67;;;0.95;;
34030;SDS011;20319;28.466;-16.274;2024-03-29T00:28:51;124.45;;;3.85;;
34030;SDS011;20319;28.466;-16.274;2024-03-29T00:31:17;201.82;;;7.53;;
34030;SDS011;20319;28.466;-16.274;2024-03-29T00:33:43;259.83;;;8.45;;
34030;SDS011;20319;28.466;-16.274;2024-03-29T00:36:08;215.43;;;6.18;;
34030;SDS011;20319;28.466;-16.274;2024-03-29T00:38:34;180.10;;;5.35;;
34030;SDS011;20319;28.466;-16.274;2024-03-29T00:41:00;169.98;;;4.97;;
34030;SDS011;20319;28.466;-16.274;2024-03-29T00:43:25;179.60;;;5.85;;
34030;SDS011;20319;28.466;-16.274;2024-03-29T00:45:51;231.70;;;6.22;;
34030;SDS011;20319;28.466;-16.274;2024-03-29T00:48:17;180.13;;;5.13;;
34030;SDS011;20319;28.466;-16.274;2024-03-29T00:50:45;199.70;;;5.55;;
34030;SDS011;20319;28.466;-16.274;2024-03-29T00:53:10;136.23;;;4.30;;
34030;SDS011;20319;28.466;-16.274;2024-03-29T00:55:36;166.40;;;4.43;;
34030;SDS011;20319;28.466;-16.274;2024-03-29T00:58:02;93.68;;;3.08;;
34030;SDS011;20319;28.466;-16.274;2024-03-29T01:00:28;123.00;;;4.13;;
34030;SDS011;20319;28.466;-16.274;2024-03-29T01:02:53;141.98;;;4.38;;
34030;SDS011;20319;28.466;-16.274;2024-03-29T01:05:19;165.85;;;4.78;;
34030;SDS011;20319;28.466;-16.274;2024-03-29T01:07:45;183.52;;;5.60;;
34030;SDS011;20319;28.466;-16.274;2024-03-29T01:10:10;166.73;;;5.05;;
34030;SDS011;20319;28.466;-16.274;2024-03-29T01:12:36;122.57;;;3.78;;
34030;SDS011;20319;28.466;-16.274;2024-03-29T01:15:04;133.82;;;4.22;;
34030;SDS011;20319;28.466;-16.274;2024-03-29T01:17:30;100.57;;;3.17;;
34030;SDS011;20319;28.466;-16.274;2024-03-29T01:19:56;129.38;;;3.65;;
34030;SDS011;20319;28.466;-16.274;2024-03-29T01:22:22;116.53;;;3.45;;
34030;SDS011;20319;28.466;-16.274;2024-03-29T01:24:47;155.32;;;5.00;;
34030;SDS011;20319;28.466;-16.274;2024-03-29T01:27:13;173.45;;;6.50;;
34030;SDS011;20319;28.466;-16.274;2024-03-29T01:29:39;133.30;;;6.18;;
34030;SDS011;20319;28.466;-16.274;2024-03-29T01:32:05;55.72;;;5.00;;
34030;SDS011;20319;28.466;-16.274;2024-03-29T01:34:31;60.92;;;5.03;;
34030;SDS011;20319;28.466;-16.274;2024-03-29T01:36:57;53.03;;;5.32;;
34030;SDS011;20319;28.466;-16.274;2024-03-29T01:39:22;44.58;;;4.90;;
34030;SDS011;20319;28.466;-16.274;2024-03-29T01:41:53;47.05;;;4.68;;
34030;SDS011;20319;28.466;-16.274;2024-03-29T01:44:19;44.78;;;5.55;;
34030;SDS011;20319;28.466;-16.274;2024-03-29T01:46:45;36.13;;;4.28;;
34030;SDS011;20319;28.466;-16.274;2024-03-29T01:49:12;45.78;;;4.88;;
34030;SDS011;20319;28.466;-16.274;2024-03-29T01:51:38;43.50;;;5.00;;
34030;SDS011;20319;28.466;-16.274;2024-03-29T01:54:05;46.28;;;5.63;;
34030;SDS011;20319;28.466;-16.274;2024-03-29T01:56:34;56.40;;;6.22;;
34030;SDS011;20319;28.466;-16.274;2024-03-29T01:59:01;53.10;;;5.43;;
34030;SDS011;20319;28.466;-16.274;2024-03-29T02:01:29;58.92;;;5.30;;
34030;SDS011;20319;28.466;-16.274;2024-03-29T02:03:55;23.40;;;3.30;;
34030;SDS011;20319;28.466;-16.274;2024-03-29T02:06:22;28.48;;;3.75;;
34030;SDS011;20319;28.466;-16.274;2024-03-29T02:08:49;27.70;;;3.40;;
34030;SDS011;20319;28.466;-16.274;2024-03-29T02:11:17;25.15;;;2.83;;
34030;SDS011;20319;28.466;-16.274;2024-03-29T02:13:43;15.55;;;1.92;;
34030;SDS011;20319;28.466;-16.274;2024-03-29T02:16:10;29.30;;;3.15;;
34030;SDS011;20319;28.466;-16.274;2024-03-29T02:18:35;45.63;;;3.88;;
34030;SDS011;20319;28.466;-16.274;2024-03-29T02:21:01;32.15;;;3.85;;
34030;SDS011;20319;28.466;-16.274;2024-03-29T02:23:27;41.78;;;5.30;;
34030;SDS011;20319;28.466;-16.274;2024-03-29T02:25:55;46.92;;;4.95;;
34030;SDS011;20319;28.466;-16.274;2024-03-29T02:28:22;44.92;;;4.45;;
34030;SDS011;20319;28.466;-16.274;2024-03-29T02:30:49;52.85;;;5.35;;
34030;SDS011;20319;28.466;-16.274;2024-03-29T02:33:15;38.63;;;4.65;;
34030;SDS011;20319;28.466;-16.274;2024-03-29T02:35:40;35.90;;;4.07;;
34030;SDS011;20319;28.466;-16.274;2024-03-29T02:38:06;49.28;;;4.75;;
34030;SDS011;20319;28.466;-16.274;2024-03-29T02:40:32;46.55;;;4.18;;
34030;SDS011;20319;28.466;-16.274;2024-03-29T02:42:57;46.28;;;6.00;;
34030;SDS011;20319;28.466;-16.274;2024-03-29T02:45:23;40.13;;;5.00;;
34030;SDS011;20319;28.466;-16.274;2024-03-29T02:47:48;37.50;;;4.32;;
34030;SDS011;20319;28.466;-16.274;2024-03-29T02:50:15;32.17;;;4.68;;
34030;SDS011;20319;28.466;-16.274;2024-03-29T02:52:42;32.28;;;5.10;;
34030;SDS011;20319;28.466;-16.274;2024-03-29T02:55:08;30.15;;;5.40;;
34030;SDS011;20319;28.466;-16.274;2024-03-29T02:57:36;37.65;;;4.88;;
34030;SDS011;20319;28.466;-16.274;2024-03-29T03:00:04;36.45;;;5.60;;
34030;SDS011;20319;28.466;-16.274;2024-03-29T03:02:30;43.25;;;4.57;;
34030;SDS011;20319;28.466;-16.274;2024-03-29T03:04:56;32.67;;;4.63;;
34030;SDS011;20319;28.466;-16.274;2024-03-29T03:07:22;33.50;;;5.10;;
34030;SDS011;20319;28.466;-16.274;2024-03-29T03:10:06;30.98;;;3.72;;
34030;SDS011;20319;28.466;-16.274;2024-03-29T03:12:51;29.52;;;3.53;;
34030;SDS011;20319;28.466;-16.274;2024-03-29T03:15:16;24.13;;;3.80;;
34030;SDS011;20319;28.466;-16.274;2024-03-29T03:17:42;27.00;;;4.00;;
34030;SDS011;20319;28.466;-16.274;2024-03-29T03:20:08;30.42;;;4.38;;
34030;SDS011;20319;28.466;-16.274;2024-03-29T03:22:34;28.30;;;4.07;;
34030;SDS011;20319;28.466;-16.274;2024-03-29T03:25:01;32.13;;;4.10;;
34030;SDS011;20319;28.466;-16.274;2024-03-29T03:27:26;22.30;;;3.58;;
34030;SDS011;20319;28.466;-16.274;2024-03-29T03:29:52;27.98;;;4.28;;
34030;SDS011;20319;28.466;-16.274;2024-03-29T03:32:18;21.90;;;3.70;;
34030;SDS011;20319;28.466;-16.274;2024-03-29T03:34:43;19.92;;;3.42;;
34030;SDS011;20319;28.466;-16.274;2024-03-29T03:37:09;15.18;;;3.28;;
34030;SDS011;20319;28.466;-16.274;2024-03-29T03:39:35;17.83;;;3.10;;
34030;SDS011;20319;28.466;-16.274;2024-03-29T03:42:00;19.45;;;3.65;;
34030;SDS011;20319;28.466;-16.274;2024-03-29T03:44:26;19.45;;;3.42;;
34030;SDS011;20319;28.466;-16.274;2024-03-29T03:46:53;15.45;;;3.60;;
34030;SDS011;20319;28.466;-16.274;2024-03-29T03:49:19;19.77;;;4.07;;
34030;SDS011;20319;28.466;-16.274;2024-03-29T03:51:45;17.63;;;3.85;;
34030;SDS011;20319;28.466;-16.274;2024-03-29T03:54:10;16.55;;;3.58;;
34030;SDS011;20319;28.466;-16.274;2024-03-29T03:56:36;24.48;;;4.07;;
34030;SDS011;20319;28.466;-16.274;2024-03-29T03:59:02;18.50;;;4.03;;
34030;SDS011;20319;28.466;-16.274;2024-03-29T04:01:27;22.52;;;4.43;;
34030;SDS011;20319;28.466;-16.274;2024-03-29T04:03:53;26.55;;;4.20;;
34030;SDS011;20319;28.466;-16.274;2024-03-29T04:06:19;21.00;;;4.20;;
34030;SDS011;20319;28.466;-16.274;2024-03-29T04:08:44;22.58;;;4.13;;
34030;SDS011;20319;28.466;-16.274;2024-03-29T04:11:10;21.73;;;4.47;;
34030;SDS011;20319;28.466;-16.274;2024-03-29T04:13:36;18.02;;;3.22;;
34030;SDS011;20319;28.466;-16.274;2024-03-29T04:16:04;20.55;;;4.28;;
34030;SDS011;20319;28.466;-16.274;2024-03-29T04:18:31;19.58;;;3.55;;
34030;SDS011;20319;28.466;-16.274;2024-03-29T04:20:57;15.88;;;3.65;;
34030;SDS011;20319;28.466;-16.274;2024-03-29T04:23:23;23.52;;;4.03;;
34030;SDS011;20319;28.466;-16.274;2024-03-29T04:25:58;17.98;;;3.80;;
34030;SDS011;20319;28.466;-16.274;2024-03-29T04:28:25;16.98;;;3.75;;
34030;SDS011;20319;28.466;-16.274;2024-03-29T04:30:55;15.85;;;3.08;;
34030;SDS011;20319;28.466;-16.274;2024-03-29T04:33:25;20.65;;;3.67;;
34030;SDS011;20319;28.466;-16.274;2024-03-29T04:38:20;15.43;;;3.28;;
34030;SDS011;20319;28.466;-16.274;2024-03-29T04:40:48;17.45;;;4.07;;
34030;SDS011;20319;28.466;-16.274;2024-03-29T04:43:14;19.45;;;3.70;;
34030;SDS011;20319;28.466;-16.274;2024-03-29T04:45:40;22.92;;;3.80;;
34030;SDS011;20319;28.466;-16.274;2024-03-29T04:48:06;19.60;;;2.95;;
34030;SDS011;20319;28.466;-16.274;2024-03-29T04:50:32;17.30;;;3.13;;
34030;SDS011;20319;28.466;-16.274;2024-03-29T04:52:57;15.05;;;3.55;;
34030;SDS011;20319;28.466;-16.274;2024-03-29T04:55:23;20.55;;;3.25;;
34030;SDS011;20319;28.466;-16.274;2024-03-29T04:57:49;15.07;;;3.10;;
34030;SDS011;20319;28.466;-16.274;2024-03-29T05:00:14;16.02;;;3.15;;
34030;SDS011;20319;28.466;-16.274;2024-03-29T05:02:40;14.40;;;2.83;;
34030;SDS011;20319;28.466;-16.274;2024-03-29T05:05:06;11.07;;;2.45;;
34030;SDS011;20319;28.466;-16.274;2024-03-29T05:07:32;15.55;;;2.60;;
34030;SDS011;20319;28.466;-16.274;2024-03-29T05:09:57;29.13;;;4.13;;
34030;SDS011;20319;28.466;-16.274;2024-03-29T05:12:24;10.68;;;2.67;;
34030;SDS011;20319;28.466;-16.274;2024-03-29T05:14:50;13.18;;;2.97;;
34030;SDS011;20319;28.466;-16.274;2024-03-29T05:17:15;14.10;;;2.80;;
34030;SDS011;20319;28.466;-16.274;2024-03-29T05:19:42;13.40;;;3.00;;
34030;SDS011;20319;28.466;-16.274;2024-03-29T05:22:08;16.00;;;2.92;;
34030;SDS011;20319;28.466;-16.274;2024-03-29T05:24:34;15.13;;;2.60;;
34030;SDS011;20319;28.466;-16.274;2024-03-29T05:27:00;12.00;;;3.80;;
34030;SDS011;20319;28.466;-16.274;2024-03-29T05:29:25;15.93;;;3.72;;
34030;SDS011;20319;28.466;-16.274;2024-03-29T05:31:51;9.55;;;2.50;;
34030;SDS011;20319;28.466;-16.274;2024-03-29T05:34:17;10.88;;;2.35;;
34030;SDS011;20319;28.466;-16.274;2024-03-29T05:36:42;17.33;;;3.00;;
34030;SDS011;20319;28.466;-16.274;2024-03-29T05:39:09;14.20;;;3.45;;
34030;SDS011;20319;28.466;-16.274;2024-03-29T05:41:34;21.20;;;3.15;;
34030;SDS011;20319;28.466;-16.274;2024-03-29T05:44:00;13.50;;;2.95;;
34030;SDS011;20319;28.466;-16.274;2024-03-29T05:46:26;16.45;;;3.85;;
34030;SDS011;20319;28.466;-16.274;2024-03-29T05:48:52;13.15;;;3.10;;
34030;SDS011;20319;28.466;-16.274;2024-03-29T05:51:17;11.73;;;2.67;;
34030;SDS011;20319;28.466;-16.274;2024-03-29T05:53:43;12.68;;;3.00;;
34030;SDS011;20319;28.466;-16.274;2024-03-29T05:56:09;16.02;;;3.25;;
34030;SDS011;20319;28.466;-16.274;2024-03-29T05:58:34;12.63;;;3.00;;
34030;SDS011;20319;28.466;-16.274;2024-03-29T06:01:00;9.60;;;2.40;;
34030;SDS011;20319;28.466;-16.274;2024-03-29T06:03:26;13.75;;;3.13;;
34030;SDS011;20319;28.466;-16.274;2024-03-29T06:05:53;10.85;;;2.85;;
34030;SDS011;20319;28.466;-16.274;2024-03-29T06:08:19;11.63;;;2.97;;
34030;SDS011;20319;28.466;-16.274;2024-03-29T06:10:46;14.20;;;3.15;;
34030;SDS011;20319;28.466;-16.274;2024-03-29T06:13:12;11.25;;;3.00;;
34030;SDS011;20319;28.466;-16.274;2024-03-29T06:16:13;15.73;;;3.17;;
34030;SDS011;20319;28.466;-16.274;2024-03-29T06:18:57;8.75;;;2.13;;
34030;SDS011;20319;28.466;-16.274;2024-03-29T06:21:23;13.07;;;3.03;;
34030;SDS011;20319;28.466;-16.274;2024-03-29T06:23:48;13.52;;;2.60;;
34030;SDS011;20319;28.466;-16.274;2024-03-29T06:26:14;14.38;;;2.80;;
34030;SDS011;20319;28.466;-16.274;2024-03-29T06:28:40;13.02;;;2.53;;
34030;SDS011;20319;28.466;-16.274;2024-03-29T06:31:06;10.77;;;2.40;;
34030;SDS011;20319;28.466;-16.274;2024-03-29T06:33:31;11.45;;;2.75;;
34030;SDS011;20319;28.466;-16.274;2024-03-29T06:35:57;9.88;;;2.80;;
34030;SDS011;20319;28.466;-16.274;2024-03-29T06:38:22;11.82;;;2.47;;
34030;SDS011;20319;28.466;-16.274;2024-03-29T06:40:48;10.00;;;2.25;;
34030;SDS011;20319;28.466;-16.274;2024-03-29T06:43:14;9.90;;;1.98;;
34030;SDS011;20319;28.466;-16.274;2024-03-29T06:45:40;11.85;;;2.33;;
34030;SDS011;20319;28.466;-16.274;2024-03-29T06:48:08;13.60;;;2.40;;
34030;SDS011;20319;28.466;-16.274;2024-03-29T06:50:34;10.48;;;2.40;;
34030;SDS011;20319;28.466;-16.274;2024-03-29T06:53:00;11.38;;;2.42;;
34030;SDS011;20319;28.466;-16.274;2024-03-29T06:55:25;13.18;;;2.85;;
34030;SDS011;20319;28.466;-16.274;2024-03-29T06:57:51;11.27;;;2.88;;
34030;SDS011;20319;28.466;-16.274;2024-03-29T07:00:17;11.57;;;2.33;;
34030;SDS011;20319;28.466;-16.274;2024-03-29T07:02:43;9.13;;;2.20;;
34030;SDS011;20319;28.466;-16.274;2024-03-29T07:05:09;9.10;;;2.10;;
34030;SDS011;20319;28.466;-16.274;2024-03-29T07:07:37;11.43;;;2.10;;
34030;SDS011;20319;28.466;-16.274;2024-03-29T07:10:03;5.63;;;1.70;;
34030;SDS011;20319;28.466;-16.274;2024-03-29T07:12:29;8.35;;;2.00;;
34030;SDS011;20319;28.466;-16.274;2024-03-29T07:14:55;7.22;;;1.92;;
34030;SDS011;20319;28.466;-16.274;2024-03-29T07:17:21;10.85;;;2.33;;
34030;SDS011;20319;28.466;-16.274;2024-03-29T07:19:46;12.50;;;2.28;;
34030;SDS011;20319;28.466;-16.274;2024-03-29T07:22:12;5.40;;;1.52;;
34030;SDS011;20319;28.466;-16.274;2024-03-29T07:24:38;10.60;;;2.00;;
34030;SDS011;20319;28.466;-16.274;2024-03-29T07:27:04;11.27;;;2.47;;
34030;SDS011;20319;28.466;-16.274;2024-03-29T07:29:29;8.15;;;1.75;;
34030;SDS011;20319;28.466;-16.274;2024-03-29T07:31:59;4.32;;;1.60;;
34030;SDS011;20319;28.466;-16.274;2024-03-29T07:34:26;11.45;;;2.40;;
34030;SDS011;20319;28.466;-16.274;2024-03-29T07:36:51;9.18;;;2.60;;
34030;SDS011;20319;28.466;-16.274;2024-03-29T07:39:17;7.47;;;1.98;;
34030;SDS011;20319;28.466;-16.274;2024-03-29T07:41:43;11.88;;;2.13;;
34030;SDS011;20319;28.466;-16.274;2024-03-29T07:44:09;9.40;;;2.08;;
34030;SDS011;20319;28.466;-16.274;2024-03-29T07:46:35;11.43;;;2.47;;
34030;SDS011;20319;28.466;-16.274;2024-03-29T07:49:05;13.02;;;2.65;;
34030;SDS011;20319;28.466;-16.274;2024-03-29T07:51:31;11.18;;;2.17;;
34030;SDS011;20319;28.466;-16.274;2024-03-29T07:53:57;11.43;;;2.38;;
34030;SDS011;20319;28.466;-16.274;2024-03-29T07:56:23;12.57;;;2.72;;
34030;SDS011;20319;28.466;-16.274;2024-03-29T07:58:52;6.82;;;1.67;;
34030;SDS011;20319;28.466;-16.274;2024-03-29T08:01:19;7.88;;;1.83;;
34030;SDS011;20319;28.466;-16.274;2024-03-29T08:03:45;11.82;;;2.10;;
34030;SDS011;20319;28.466;-16.274;2024-03-29T08:06:11;12.43;;;2.13;;
34030;SDS011;20319;28.466;-16.274;2024-03-29T08:08:37;8.70;;;2.03;;
34030;SDS011;20319;28.466;-16.274;2024-03-29T08:11:03;6.68;;;1.70;;
34030;SDS011;20319;28.466;-16.274;2024-03-29T08:13:29;9.57;;;1.60;;
34030;SDS011;20319;28.466;-16.274;2024-03-29T08:15:57;10.95;;;1.70;;
34030;SDS011;20319;28.466;-16.274;2024-03-29T08:18:26;8.93;;;1.98;;
34030;SDS011;20319;28.466;-16.274;2024-03-29T08:20:53;8.00;;;1.90;;
34030;SDS011;20319;28.466;-16.274;2024-03-29T08:23:20;10.52;;;2.22;;
34030;SDS011;20319;28.466;-16.274;2024-03-29T08:25:49;9.32;;;2.00;;
34030;SDS011;20319;28.466;-16.274;2024-03-29T08:28:16;8.32;;;1.77;;
34030;SDS011;20319;28.466;-16.274;2024-03-29T08:30:43;11.02;;;2.20;;
34030;SDS011;20319;28.466;-16.274;2024-03-29T08:33:08;7.45;;;2.45;;
34030;SDS011;20319;28.466;-16.274;2024-03-29T08:35:34;9.50;;;2.70;;
34030;SDS011;20319;28.466;-16.274;2024-03-29T08:38:00;9.95;;;2.28;;
34030;SDS011;20319;28.466;-16.274;2024-03-29T08:40:27;7.90;;;2.20;;
34030;SDS011;20319;28.466;-16.274;2024-03-29T08:42:57;6.45;;;1.80;;
34030;SDS011;20319;28.466;-16.274;2024-03-29T08:45:23;8.85;;;1.63;;
34030;SDS011;20319;28.466;-16.274;2024-03-29T08:47:49;9.02;;;1.80;;
34030;SDS011;20319;28.466;-16.274;2024-03-29T08:50:14;9.10;;;1.98;;
34030;SDS011;20319;28.466;-16.274;2024-03-29T08:52:40;6.70;;;1.83;;
34030;SDS011;20319;28.466;-16.274;2024-03-29T08:55:07;6.72;;;1.42;;
34030;SDS011;20319;28.466;-16.274;2024-03-29T08:57:33;4.63;;;1.35;;
34030;SDS011;20319;28.466;-16.274;2024-03-29T08:59:59;6.82;;;1.52;;
34030;SDS011;20319;28.466;-16.274;2024-03-29T09:02:25;8.48;;;1.50;;
34030;SDS011;20319;28.466;-16.274;2024-03-29T09:04:50;5.63;;;1.65;;
34030;SDS011;20319;28.466;-16.274;2024-03-29T09:07:16;7.25;;;1.80;;
34030;SDS011;20319;28.466;-16.274;2024-03-29T09:09:42;11.73;;;2.20;;
34030;SDS011;20319;28.466;-16.274;2024-03-29T09:12:08;9.95;;;2.58;;
34030;SDS011;20319;28.466;-16.274;2024-03-29T09:14:34;8.43;;;2.05;;
34030;SDS011;20319;28.466;-16.274;2024-03-29T09:16:59;10.25;;;1.95;;
34030;SDS011;20319;28.466;-16.274;2024-03-29T09:19:26;7.18;;;1.33;;
34030;SDS011;20319;28.466;-16.274;2024-03-29T09:21:52;5.97;;;1.70;;
34030;SDS011;20319;28.466;-16.274;2024-03-29T09:24:18;7.80;;;1.77;;
34030;SDS011;20319;28.466;-16.274;2024-03-29T09:26:45;5.40;;;1.20;;
34030;SDS011;20319;28.466;-16.274;2024-03-29T09:29:13;12.85;;;1.95;;
34030;SDS011;20319;28.466;-16.274;2024-03-29T09:31:39;6.95;;;1.60;;
34030;SDS011;20319;28.466;-16.274;2024-03-29T09:34:04;10.80;;;1.80;;
34030;SDS011;20319;28.466;-16.274;2024-03-29T09:36:30;8.73;;;1.60;;
34030;SDS011;20319;28.466;-16.274;2024-03-29T09:38:56;8.18;;;2.20;;
34030;SDS011;20319;28.466;-16.274;2024-03-29T09:41:21;8.52;;;2.10;;
34030;SDS011;20319;28.466;-16.274;2024-03-29T09:43:51;6.90;;;1.85;;
34030;SDS011;20319;28.466;-16.274;2024-03-29T09:46:20;9.77;;;2.70;;
34030;SDS011;20319;28.466;-16.274;2024-03-29T09:48:46;10.02;;;2.95;;
34030;SDS011;20319;28.466;-16.274;2024-03-29T09:51:14;9.85;;;2.05;;
34030;SDS011;20319;28.466;-16.274;2024-03-29T09:53:43;9.15;;;2.00;;
34030;SDS011;20319;28.466;-16.274;2024-03-29T09:56:09;8.25;;;1.77;;
34030;SDS011;20319;28.466;-16.274;2024-03-29T09:58:35;11.90;;;2.20;;
34030;SDS011;20319;28.466;-16.274;2024-03-29T10:01:03;10.57;;;2.08;;
34030;SDS011;20319;28.466;-16.274;2024-03-29T10:03:29;8.85;;;1.73;;
34030;SDS011;20319;28.466;-16.274;2024-03-29T10:05:57;7.53;;;1.60;;
34030;SDS011;20319;28.466;-16.274;2024-03-29T10:08:27;7.78;;;1.83;;
34030;SDS011;20319;28.466;-16.274;2024-03-29T10:10:55;12.85;;;4.03;;
34030;SDS011;20319;28.466;-16.274;2024-03-29T10:13:22;7.00;;;1.92;;
34030;SDS011;20319;28.466;-16.274;2024-03-29T10:15:52;10.88;;;1.90;;
34030;SDS011;20319;28.466;-16.274;2024-03-29T10:18:21;9.52;;;2.00;;
34030;SDS011;20319;28.466;-16.274;2024-03-29T10:21:01;10.15;;;2.00;;
34030;SDS011;20319;28.466;-16.274;2024-03-29T10:23:29;7.97;;;1.85;;
34030;SDS011;20319;28.466;-16.274;2024-03-29T10:25:55;9.88;;;1.83;;
34030;SDS011;20319;28.466;-16.274;2024-03-29T10:28:22;6.32;;;1.45;;
34030;SDS011;20319;28.466;-16.274;2024-03-29T10:30:51;7.50;;;1.70;;
34030;SDS011;20319;28.466;-16.274;2024-03-29T10:33:17;7.40;;;1.60;;
34030;SDS011;20319;28.466;-16.274;2024-03-29T10:35:45;9.77;;;3.50;;
34030;SDS011;20319;28.466;-16.274;2024-03-29T10:38:11;9.50;;;2.15;;
34030;SDS011;20319;28.466;-16.274;2024-03-29T10:40:40;8.35;;;1.73;;
34030;SDS011;20319;28.466;-16.274;2024-03-29T10:43:10;8.55;;;2.20;;
34030;SDS011;20319;28.466;-16.274;2024-03-29T10:45:39;8.40;;;1.83;;
34030;SDS011;20319;28.466;-16.274;2024-03-29T10:48:05;7.35;;;1.60;;
34030;SDS011;20319;28.466;-16.274;2024-03-29T10:50:37;4.78;;;1.50;;
34030;SDS011;20319;28.466;-16.274;2024-03-29T10:53:06;12.00;;;1.95;;
34030;SDS011;20319;28.466;-16.274;2024-03-29T10:55:35;9.20;;;1.73;;
34030;SDS011;20319;28.466;-16.274;2024-03-29T10:58:03;9.18;;;2.10;;
34030;SDS011;20319;28.466;-16.274;2024-03-29T11:00:33;7.95;;;1.63;;
34030;SDS011;20319;28.466;-16.274;2024-03-29T11:05:35;5.75;;;1.48;;
34030;SDS011;20319;28.466;-16.274;2024-03-29T11:08:04;6.20;;;1.55;;
34030;SDS011;20319;28.466;-16.274;2024-03-29T11:15:54;5.18;;;1.70;;
34030;SDS011;20319;28.466;-16.274;2024-03-29T11:18:19;6.70;;;1.52;;
34030;SDS011;20319;28.466;-16.274;2024-03-29T11:20:46;5.95;;;1.20;;
34030;SDS011;20319;28.466;-16.274;2024-03-29T11:23:22;7.32;;;1.55;;
34030;SDS011;20319;28.466;-16.274;2024-03-29T11:25:49;7.82;;;1.50;;
34030;SDS011;20319;28.466;-16.274;2024-03-29T11:28:22;4.75;;;1.33;;
34030;SDS011;20319;28.466;-16.274;2024-03-29T11:33:33;5.80;;;1.25;;
34030;SDS011;20319;28.466;-16.274;2024-03-29T11:36:15;5.30;;;1.23;;
34030;SDS011;20319;28.466;-16.274;2024-03-29T11:38:52;4.18;;;1.15;;
34030;SDS011;20319;28.466;-16.274;2024-03-29T11:41:23;10.70;;;1.48;;
34030;SDS011;20319;28.466;-16.274;2024-03-29T11:43:49;8.45;;;1.50;;
34030;SDS011;20319;28.466;-16.274;2024-03-29T11:46:16;7.55;;;1.92;;
34030;SDS011;20319;28.466;-16.274;2024-03-29T11:48:43;4.78;;;1.20;;
34030;SDS011;20319;28.466;-16.274;2024-03-29T11:51:12;8.70;;;1.55;;
34030;SDS011;20319;28.466;-16.274;2024-03-29T11:53:42;5.00;;;1.45;;
34030;SDS011;20319;28.466;-16.274;2024-03-29T11:56:09;5.50;;;1.20;;
34030;SDS011;20319;28.466;-16.274;2024-03-29T11:58:36;5.55;;;1.70;;
34030;SDS011;20319;28.466;-16.274;2024-03-29T12:01:04;5.75;;;1.25;;
34030;SDS011;20319;28.466;-16.274;2024-03-29T12:03:30;5.85;;;1.15;;
34030;SDS011;20319;28.466;-16.274;2024-03-29T12:05:58;6.03;;;1.90;;
34030;SDS011;20319;28.466;-16.274;2024-03-29T12:08:28;5.70;;;1.30;;
34030;SDS011;20319;28.466;-16.274;2024-03-29T12:10:56;6.18;;;1.65;;
34030;SDS011;20319;28.466;-16.274;2024-03-29T12:13:23;5.50;;;1.30;;
34030;SDS011;20319;28.466;-16.274;2024-03-29T12:15:48;5.75;;;1.30;;
34030;SDS011;20319;28.466;-16.274;2024-03-29T12:18:14;9.43;;;1.42;;
34030;SDS011;20319;28.466;-16.274;2024-03-29T12:20:41;7.55;;;1.80;;
34030;SDS011;20319;28.466;-16.274;2024-03-29T12:23:20;5.72;;;1.52;;
34030;SDS011;20319;28.466;-16.274;2024-03-29T12:25:47;6.20;;;1.48;;
34030;SDS011;20319;28.466;-16.274;2024-03-29T12:28:14;8.40;;;1.33;;
34030;SDS011;20319;28.466;-16.274;2024-03-29T12:30:45;7.28;;;1.60;;
34030;SDS011;20319;28.466;-16.274;2024-03-29T12:33:12;6.20;;;1.52;;
34030;SDS011;20319;28.466;-16.274;2024-03-29T12:35:45;4.30;;;1.38;;
34030;SDS011;20319;28.466;-16.274;2024-03-29T12:38:15;4.72;;;1.40;;
34030;SDS011;20319;28.466;-16.274;2024-03-29T12:40:43;6.43;;;1.13;;
34030;SDS011;20319;28.466;-16.274;2024-03-29T12:43:12;6.85;;;1.40;;
34030;SDS011;20319;28.466;-16.274;2024-03-29T12:45:38;6.28;;;1.30;;
34030;SDS011;20319;28.466;-16.274;2024-03-29T12:48:11;7.65;;;1.40;;
34030;SDS011;20319;28.466;-16.274;2024-03-29T12:50:45;7.75;;;1.30;;
34030;SDS011;20319;28.466;-16.274;2024-03-29T12:53:12;10.60;;;1.83;;
34030;SDS011;20319;28.466;-16.274;2024-03-29T12:55:42;7.00;;;3.55;;
34030;SDS011;20319;28.466;-16.274;2024-03-29T12:58:11;4.88;;;1.63;;
34030;SDS011;20319;28.466;-16.274;2024-03-29T13:00:38;5.22;;;1.30;;
34030;SDS011;20319;28.466;-16.274;2024-03-29T13:03:05;5.35;;;1.15;;
34030;SDS011;20319;28.466;-16.274;2024-03-29T13:05:31;7.68;;;1.67;;
34030;SDS011;20319;28.466;-16.274;2024-03-29T13:08:02;5.95;;;1.45;;
34030;SDS011;20319;28.466;-16.274;2024-03-29T13:10:29;2.80;;;1.25;;
34030;SDS011;20319;28.466;-16.274;2024-03-29T13:12:55;6.55;;;1.40;;
34030;SDS011;20319;28.466;-16.274;2024-03-29T13:15:23;5.00;;;1.38;;
34030;SDS011;20319;28.466;-16.274;2024-03-29T13:17:54;7.25;;;1.60;;
34030;SDS011;20319;28.466;-16.274;2024-03-29T13:20:23;8.27;;;2.03;;
34030;SDS011;20319;28.466;-16.274;2024-03-29T13:22:49;9.18;;;2.20;;
34030;SDS011;20319;28.466;-16.274;2024-03-29T13:25:17;9.30;;;1.40;;
34030;SDS011;20319;28.466;-16.274;2024-03-29T13:27:44;4.38;;;1.25;;
34030;SDS011;20319;28.466;-16.274;2024-03-29T13:30:12;4.35;;;1.45;;
34030;SDS011;20319;28.466;-16.274;2024-03-29T13:32:39;7.15;;;1.60;;
34030;SDS011;20319;28.466;-16.274;2024-03-29T13:35:05;5.00;;;1.52;;
34030;SDS011;20319;28.466;-16.274;2024-03-29T13:37:34;10.77;;;1.98;;
34030;SDS011;20319;28.466;-16.274;2024-03-29T13:40:02;6.50;;;1.35;;
34030;SDS011;20319;28.466;-16.274;2024-03-29T13:42:29;4.35;;;1.00;;
34030;SDS011;20319;28.466;-16.274;2024-03-29T13:44:56;5.63;;;1.60;;
34030;SDS011;20319;28.466;-16.274;2024-03-29T13:47:21;6.78;;;1.60;;
34030;SDS011;20319;28.466;-16.274;2024-03-29T13:49:47;5.00;;;1.30;;
34030;SDS011;20319;28.466;-16.274;2024-03-29T13:52:17;4.10;;;1.80;;
34030;SDS011;20319;28.466;-16.274;2024-03-29T13:54:43;8.38;;;1.58;;
34030;SDS011;20319;28.466;-16.274;2024-03-29T13:57:15;8.57;;;1.80;;
34030;SDS011;20319;28.466;-16.274;2024-03-29T13:59:41;7.88;;;1.58;;
34030;SDS011;20319;28.466;-16.274;2024-03-29T14:02:10;9.30;;;2.08;;
34030;SDS011;20319;28.466;-16.274;2024-03-29T14:04:42;9.15;;;2.00;;
34030;SDS011;20319;28.466;-16.274;2024-03-29T14:07:09;6.97;;;1.60;;
34030;SDS011;20319;28.466;-16.274;2024-03-29T14:09:43;6.65;;;1.50;;
34030;SDS011;20319;28.466;-16.274;2024-03-29T14:12:10;6.53;;;1.63;;
34030;SDS011;20319;28.466;-16.274;2024-03-29T14:14:36;9.02;;;2.00;;
34030;SDS011;20319;28.466;-16.274;2024-03-29T14:17:03;6.55;;;1.60;;
34030;SDS011;20319;28.466;-16.274;2024-03-29T14:19:31;5.97;;;1.77;;
34030;SDS011;20319;28.466;-16.274;2024-03-29T14:21:59;4.05;;;1.50;;
34030;SDS011;20319;28.466;-16.274;2024-03-29T14:24:25;6.57;;;2.08;;
34030;SDS011;20319;28.466;-16.274;2024-03-29T14:26:52;9.07;;;2.00;;